createdAt,value
2023-04-03T00:00:41.075Z,4.25
2023-04-03T00:01:41.131Z,4.21
2023-04-03T00:02:41.253Z,4.19
2023-04-03T00:03:41.058Z,4.15
2023-04-03T00:04:41.201Z,4.08
2023-04-03T00:05:41.030Z,4.16
2023-04-03T00:06:41.006Z,4.16
2023-04-03T00:07:40.995Z,4.07
2023-04-03T00:08:40.978Z,4.15
2023-04-03T00:09:40.972Z,4.06
2023-04-03T00:10:40.969Z,4.08
2023-04-03T00:11:40.952Z,3.97
2023-04-03T00:12:40.941Z,4.01
2023-04-03T00:13:40.956Z,4.00
2023-04-03T00:14:40.918Z,4.04
2023-04-03T00:15:40.931Z,3.90
2023-04-03T00:16:40.950Z,3.96
2023-04-03T00:17:40.922Z,3.88
2023-04-03T00:18:40.882Z,3.89
2023-04-03T00:19:40.866Z,3.85
2023-04-03T00:20:40.863Z,3.82
2023-04-03T00:21:40.858Z,3.86
2023-04-03T00:22:40.839Z,3.83
2023-04-03T00:23:40.828Z,3.86
2023-04-03T00:24:40.813Z,3.86
2023-04-03T00:25:40.810Z,3.71
2023-04-03T00:26:40.802Z,3.80
2023-04-03T00:27:40.784Z,3.72
2023-04-03T00:28:40.771Z,3.72
2023-04-03T00:29:40.774Z,3.64
2023-04-03T00:30:40.855Z,3.76
2023-04-03T00:31:40.750Z,3.64
2023-04-03T00:32:40.766Z,3.64
2023-04-03T00:33:40.721Z,3.62
2023-04-03T00:34:40.710Z,3.49
2023-04-03T00:35:40.789Z,3.57
2023-04-03T00:36:40.747Z,3.61
2023-04-03T00:37:40.679Z,3.62
2023-04-03T00:38:40.717Z,3.42
2023-04-03T00:39:40.656Z,3.44
2023-04-03T00:40:40.665Z,3.52
2023-04-03T00:41:40.645Z,3.52
2023-04-03T00:42:40.621Z,3.42
2023-04-03T00:43:40.615Z,3.36
2023-04-03T00:44:40.603Z,3.40
2023-04-03T00:45:40.591Z,3.39
2023-04-03T00:46:40.697Z,3.31
2023-04-03T00:47:40.575Z,3.28
2023-04-03T00:48:40.557Z,3.31
2023-04-03T00:49:40.552Z,3.31
2023-04-03T00:50:40.531Z,3.24
2023-04-03T00:51:40.541Z,3.30
2023-04-03T00:52:40.517Z,3.09
2023-04-03T00:53:40.510Z,3.18
2023-04-03T00:54:40.489Z,3.06
2023-04-03T00:55:40.495Z,3.12
2023-04-03T00:56:40.481Z,3.13
2023-04-03T00:57:40.461Z,3.07
2023-04-03T00:58:40.450Z,3.07
2023-04-03T00:59:40.441Z,2.95
2023-04-03T01:00:40.423Z,2.97
2023-04-03T01:01:40.477Z,2.91
2023-04-03T01:02:40.433Z,2.87
2023-04-03T01:03:40.417Z,2.97
2023-04-03T01:04:40.530Z,3.00
2023-04-03T01:05:40.382Z,2.88
2023-04-03T01:06:40.382Z,2.85
2023-04-03T01:07:40.365Z,2.94
2023-04-03T01:08:40.344Z,2.94
2023-04-03T01:09:40.335Z,2.85
2023-04-03T01:10:40.327Z,2.84
2023-04-03T01:11:40.329Z,2.85
2023-04-03T01:12:40.302Z,2.76
2023-04-03T01:13:41.296Z,2.79
2023-04-03T01:14:40.296Z,2.71
2023-04-03T01:15:40.295Z,2.81
2023-04-03T01:16:40.274Z,2.73
2023-04-03T01:17:40.303Z,2.74
2023-04-03T01:18:40.240Z,2.77
2023-04-03T01:19:40.231Z,2.71
2023-04-03T01:20:40.307Z,2.73
2023-04-03T01:21:40.233Z,2.66
2023-04-03T01:22:40.199Z,2.53
2023-04-03T01:23:40.197Z,2.63
2023-04-03T01:24:40.290Z,2.59
2023-04-03T01:25:40.174Z,2.61
2023-04-03T01:26:40.163Z,2.56
2023-04-03T01:27:40.146Z,2.52
2023-04-03T01:28:40.141Z,2.52
2023-04-03T01:29:40.145Z,2.52
2023-04-03T01:30:40.115Z,2.45
2023-04-03T01:31:40.156Z,2.44
2023-04-03T01:32:40.147Z,2.38
2023-04-03T01:33:40.099Z,2.38
2023-04-03T01:34:40.088Z,2.38
2023-04-03T01:35:40.099Z,2.37
2023-04-03T01:36:40.064Z,2.35
2023-04-03T01:37:40.048Z,2.34
2023-04-03T01:38:40.034Z,2.19
2023-04-03T01:39:40.023Z,2.27
2023-04-03T01:40:40.011Z,2.19
2023-04-03T01:41:40.014Z,2.22
2023-04-03T01:42:39.997Z,2.15
2023-04-03T01:43:39.985Z,2.13
2023-04-03T01:44:39.992Z,2.28
2023-04-03T01:45:40.003Z,2.20
2023-04-03T01:46:39.952Z,2.20
2023-04-03T01:47:40.009Z,2.17
2023-04-03T01:48:39.928Z,2.20
2023-04-03T01:49:39.910Z,2.19
2023-04-03T01:50:39.906Z,2.20
2023-04-03T01:51:39.900Z,2.10
2023-04-03T01:52:39.885Z,2.12
2023-04-03T01:53:39.865Z,2.10
2023-04-03T01:54:39.867Z,2.22
2023-04-03T01:55:39.847Z,2.16
2023-04-03T01:56:39.848Z,2.17
2023-04-03T01:57:39.823Z,2.08
2023-04-03T01:58:39.819Z,2.16
2023-04-03T01:59:39.803Z,2.08
2023-04-03T02:00:39.794Z,2.12
2023-04-03T02:01:39.861Z,2.06
2023-04-03T02:02:39.803Z,2.17
2023-04-03T02:03:39.778Z,2.12
2023-04-03T02:04:39.755Z,2.09
2023-04-03T02:05:39.736Z,2.13
2023-04-03T02:06:39.745Z,1.93
2023-04-03T02:07:39.729Z,2.01
2023-04-03T02:08:39.720Z,2.09
2023-04-03T02:09:39.694Z,2.06
2023-04-03T02:10:39.689Z,2.02
2023-04-03T02:11:39.672Z,1.98
2023-04-03T02:12:39.673Z,2.04
2023-04-03T02:13:39.647Z,1.90
2023-04-03T02:14:39.645Z,1.90
2023-04-03T02:15:39.629Z,1.94
2023-04-03T02:16:39.683Z,1.89
2023-04-03T02:17:39.642Z,2.06
2023-04-03T02:18:39.601Z,1.90
2023-04-03T02:19:39.581Z,1.90
2023-04-03T02:20:39.791Z,1.87
2023-04-03T02:21:39.558Z,1.91
2023-04-03T02:22:39.563Z,1.85
2023-04-03T02:23:39.537Z,1.90
2023-04-03T02:24:39.530Z,1.83
2023-04-03T02:25:39.515Z,1.82
2023-04-03T02:26:39.504Z,1.82
2023-04-03T02:27:39.503Z,1.75
2023-04-03T02:28:39.482Z,1.78
2023-04-03T02:29:39.473Z,1.83
2023-04-03T02:30:39.978Z,1.76
2023-04-03T02:31:39.452Z,1.79
2023-04-03T02:32:39.488Z,1.78
2023-04-03T02:33:39.427Z,1.76
2023-04-03T02:34:39.420Z,1.75
2023-04-03T02:35:39.452Z,1.60
2023-04-03T02:36:39.398Z,1.65
2023-04-03T02:37:39.394Z,1.60
2023-04-03T02:38:39.377Z,1.65
2023-04-03T02:39:39.362Z,1.57
2023-04-03T02:40:39.554Z,1.69
2023-04-03T02:41:39.359Z,1.57
2023-04-03T02:42:39.348Z,1.57
2023-04-03T02:43:39.326Z,1.58
2023-04-03T02:44:39.314Z,1.58
2023-04-03T02:45:39.303Z,1.58
2023-04-03T02:46:39.299Z,1.58
2023-04-03T02:47:39.324Z,1.60
2023-04-03T02:48:39.275Z,1.55
2023-04-03T02:49:39.267Z,1.52
2023-04-03T02:50:39.264Z,1.57
2023-04-03T02:51:39.248Z,1.55
2023-04-03T02:52:39.247Z,1.57
2023-04-03T02:53:39.224Z,1.54
2023-04-03T02:54:39.216Z,1.50
2023-04-03T02:55:39.208Z,1.51
2023-04-03T02:56:39.213Z,1.43
2023-04-03T02:57:39.188Z,1.60
2023-04-03T02:58:39.168Z,1.55
2023-04-03T02:59:39.160Z,1.58
2023-04-03T03:00:39.429Z,1.57
2023-04-03T03:01:39.285Z,1.47
2023-04-03T03:02:39.199Z,1.60
2023-04-03T03:03:39.113Z,1.52
2023-04-03T03:04:39.130Z,1.46
2023-04-03T03:05:39.089Z,1.57
2023-04-03T03:06:39.081Z,1.42
2023-04-03T03:07:39.086Z,1.46
2023-04-03T03:08:39.070Z,1.47
2023-04-03T03:09:39.045Z,1.42
2023-04-03T03:10:39.280Z,1.36
2023-04-03T03:11:39.035Z,1.37
2023-04-03T03:12:39.044Z,1.39
2023-04-03T03:13:39.044Z,1.43
2023-04-03T03:14:39.033Z,1.46
2023-04-03T03:15:39.039Z,1.46
2023-04-03T03:16:38.983Z,1.24
2023-04-03T03:17:39.049Z,1.37
2023-04-03T03:18:38.955Z,1.44
2023-04-03T03:19:38.957Z,1.26
2023-04-03T03:20:39.020Z,1.29
2023-04-03T03:21:38.952Z,1.22
2023-04-03T03:22:39.023Z,1.18
2023-04-03T03:23:38.902Z,1.04
2023-04-03T03:24:38.895Z,1.00
2023-04-03T03:25:39.082Z,1.04
2023-04-03T03:26:38.875Z,1.01
2023-04-03T03:27:38.876Z,0.92
2023-04-03T03:28:38.861Z,0.90
2023-04-03T03:29:38.845Z,0.90
2023-04-03T03:30:38.844Z,0.89
2023-04-03T03:31:40.030Z,0.90
2023-04-03T03:32:40.001Z,0.97
2023-04-03T03:33:39.929Z,1.00
2023-04-03T03:34:39.917Z,1.00
2023-04-03T03:35:40.198Z,0.97
2023-04-03T03:36:39.899Z,0.94
2023-04-03T03:37:39.908Z,0.92
2023-04-03T03:38:39.873Z,0.96
2023-04-03T03:39:39.860Z,0.86
2023-04-03T03:40:39.859Z,0.86
2023-04-03T03:41:39.834Z,0.90
2023-04-03T03:42:39.842Z,0.96
2023-04-03T03:43:39.824Z,0.82
2023-04-03T03:44:39.816Z,0.85
2023-04-03T03:45:39.840Z,0.72
2023-04-03T03:46:39.821Z,0.80
2023-04-03T03:47:39.830Z,0.71
2023-04-03T03:48:39.774Z,0.78
2023-04-03T03:49:39.788Z,0.79
2023-04-03T03:50:39.766Z,0.83
2023-04-03T03:51:39.744Z,0.75
2023-04-03T03:52:39.746Z,0.70
2023-04-03T03:53:39.729Z,0.71
2023-04-03T03:54:39.725Z,0.62
2023-04-03T03:55:39.932Z,0.62
2023-04-03T03:56:39.699Z,0.62
2023-04-03T03:57:39.701Z,0.72
2023-04-03T03:58:39.676Z,0.71
2023-04-03T03:59:39.664Z,0.75
2023-04-03T04:00:39.657Z,0.79
2023-04-03T04:01:39.679Z,0.78
2023-04-03T04:02:39.820Z,0.82
2023-04-03T04:03:39.787Z,0.68
2023-04-03T04:04:39.624Z,0.64
2023-04-03T04:05:40.060Z,0.58
2023-04-03T04:06:39.614Z,0.68
2023-04-03T04:07:39.604Z,0.72
2023-04-03T04:08:39.589Z,0.64
2023-04-03T04:09:39.584Z,0.70
2023-04-03T04:10:39.561Z,0.68
2023-04-03T04:11:39.556Z,0.68
2023-04-03T04:12:39.551Z,0.82
2023-04-03T04:13:39.558Z,0.79
2023-04-03T04:14:39.530Z,0.88
2023-04-03T04:15:39.839Z,0.89
2023-04-03T04:16:39.556Z,0.89
2023-04-03T04:17:39.551Z,0.78
2023-04-03T04:18:39.492Z,0.72
2023-04-03T04:19:39.475Z,0.79
2023-04-03T04:20:39.471Z,0.78
2023-04-03T04:21:39.456Z,0.79
2023-04-03T04:22:39.459Z,0.76
2023-04-03T04:23:39.450Z,0.86
2023-04-03T04:24:39.930Z,0.90
2023-04-03T04:25:39.505Z,0.96
2023-04-03T04:26:39.417Z,0.85
2023-04-03T04:27:39.410Z,1.04
2023-04-03T04:28:39.394Z,1.08
2023-04-03T04:29:39.391Z,1.12
2023-04-03T04:30:39.415Z,1.14
2023-04-03T04:31:39.372Z,1.26
2023-04-03T04:32:39.410Z,1.26
2023-04-03T04:33:39.348Z,1.29
2023-04-03T04:34:39.355Z,1.24
2023-04-03T04:35:39.744Z,1.25
2023-04-03T04:36:39.487Z,1.33
2023-04-03T04:37:39.320Z,1.29
2023-04-03T04:38:39.294Z,1.29
2023-04-03T04:39:39.288Z,1.26
2023-04-03T04:40:39.275Z,1.34
2023-04-03T04:41:39.265Z,1.34
2023-04-03T04:42:39.271Z,1.22
2023-04-03T04:43:39.257Z,1.26
2023-04-03T04:44:39.245Z,1.33
2023-04-03T04:45:39.579Z,1.40
2023-04-03T04:46:40.231Z,1.37
2023-04-03T04:47:39.273Z,1.39
2023-04-03T04:48:39.203Z,1.43
2023-04-03T04:49:39.182Z,1.39
2023-04-03T04:50:39.210Z,1.39
2023-04-03T04:51:51.059Z,1.36
2023-04-03T04:52:41.182Z,1.42
2023-04-03T04:53:39.188Z,1.33
2023-04-03T04:54:39.150Z,1.36
2023-04-03T04:55:39.302Z,1.34
2023-04-03T04:56:39.141Z,1.39
2023-04-03T04:57:39.239Z,1.36
2023-04-03T04:58:39.098Z,1.34
2023-04-03T04:59:39.116Z,1.40
2023-04-03T05:00:39.117Z,1.42
2023-04-03T05:01:39.130Z,1.39
2023-04-03T05:02:39.114Z,1.33
2023-04-03T05:03:39.065Z,1.43
2023-04-03T05:04:39.090Z,1.47
2023-04-03T05:05:39.538Z,1.44
2023-04-03T05:06:39.037Z,1.43
2023-04-03T05:07:39.033Z,1.42
2023-04-03T05:08:39.030Z,1.28
2023-04-03T05:09:38.995Z,1.44
2023-04-03T05:10:38.990Z,1.39
2023-04-03T05:11:38.974Z,1.44
2023-04-03T05:12:38.982Z,1.32
2023-04-03T05:13:38.949Z,1.43
2023-04-03T05:14:38.948Z,1.36
2023-04-03T05:15:39.453Z,1.40
2023-04-03T05:16:38.926Z,1.47
2023-04-03T05:17:38.930Z,1.52
2023-04-03T05:18:38.916Z,1.46
2023-04-03T05:19:38.891Z,1.37
2023-04-03T05:20:38.891Z,1.32
2023-04-03T05:21:38.889Z,1.36
2023-04-03T05:22:38.881Z,1.36
2023-04-03T05:23:38.874Z,1.29
2023-04-03T05:24:38.864Z,1.37
2023-04-03T05:25:39.112Z,1.36
2023-04-03T05:26:38.833Z,1.34
2023-04-03T05:27:38.826Z,1.40
2023-04-03T05:28:38.826Z,1.54
2023-04-03T05:29:38.805Z,1.44
2023-04-03T05:30:38.798Z,1.39
2023-04-03T05:31:38.867Z,1.28
2023-04-03T05:32:38.809Z,1.39
2023-04-03T05:33:38.772Z,1.36
2023-04-03T05:34:38.755Z,1.33
2023-04-03T05:35:39.002Z,1.33
2023-04-03T05:36:38.740Z,1.43
2023-04-03T05:37:38.720Z,1.36
2023-04-03T05:38:38.743Z,1.34
2023-04-03T05:39:38.708Z,1.28
2023-04-03T05:40:38.703Z,1.37
2023-04-03T05:41:38.685Z,1.43
2023-04-03T05:42:38.686Z,1.47
2023-04-03T05:43:38.680Z,1.34
2023-04-03T05:44:38.653Z,1.29
2023-04-03T05:45:38.658Z,1.36
2023-04-03T05:46:38.637Z,1.50
2023-04-03T05:47:38.675Z,1.39
2023-04-03T05:48:38.625Z,1.28
2023-04-03T05:49:38.600Z,1.36
2023-04-03T05:50:38.595Z,1.40
2023-04-03T05:51:38.585Z,1.42
2023-04-03T05:52:38.580Z,1.46
2023-04-03T05:53:38.683Z,1.39
2023-04-03T05:54:38.556Z,1.55
2023-04-03T05:55:38.796Z,1.51
2023-04-03T05:56:38.536Z,1.51
2023-04-03T05:57:38.638Z,1.55
2023-04-03T05:58:38.535Z,1.61
2023-04-03T05:59:38.569Z,1.50
2023-04-03T06:00:38.556Z,1.51
2023-04-03T06:01:39.483Z,1.58
2023-04-03T06:02:38.564Z,1.64
2023-04-03T06:03:41.541Z,1.62
2023-04-03T06:04:44.094Z,1.71
2023-04-03T06:05:38.664Z,1.65
2023-04-03T06:06:38.557Z,1.87
2023-04-03T06:07:38.454Z,1.78
2023-04-03T06:08:38.548Z,1.73
2023-04-03T06:09:38.459Z,1.72
2023-04-03T06:10:38.712Z,1.72
2023-04-03T06:11:38.395Z,1.72
2023-04-03T06:12:38.375Z,1.78
2023-04-03T06:13:38.387Z,1.73
2023-04-03T06:14:38.357Z,1.76
2023-04-03T06:15:38.354Z,1.73
2023-04-03T06:16:39.621Z,1.83
2023-04-03T06:17:38.344Z,1.97
2023-04-03T06:18:38.343Z,2.06
2023-04-03T06:19:38.314Z,2.02
2023-04-03T06:20:38.689Z,2.06
2023-04-03T06:21:38.289Z,2.06
2023-04-03T06:22:38.290Z,2.17
2023-04-03T06:23:38.266Z,2.19
2023-04-03T06:24:38.253Z,2.16
2023-04-03T06:25:38.252Z,2.22
2023-04-03T06:26:38.247Z,2.38
2023-04-03T06:27:38.226Z,2.38
2023-04-03T06:28:38.240Z,2.66
2023-04-03T06:29:38.226Z,2.97
2023-04-03T06:30:38.475Z,3.24
2023-04-03T06:31:38.188Z,3.02
2023-04-03T06:32:38.228Z,2.98
2023-04-03T06:33:38.176Z,2.77
2023-04-03T06:34:38.139Z,2.97
2023-04-03T06:35:38.296Z,2.91
2023-04-03T06:36:38.128Z,2.94
2023-04-03T06:37:38.145Z,2.77
2023-04-03T06:38:38.132Z,2.74
2023-04-03T06:39:38.193Z,2.77
2023-04-03T06:40:38.279Z,2.63
2023-04-03T06:41:38.087Z,2.64
2023-04-03T06:42:38.060Z,2.41
2023-04-03T06:43:38.064Z,2.40
2023-04-03T06:44:38.043Z,2.44
2023-04-03T06:45:38.191Z,2.41
2023-04-03T06:46:38.059Z,2.41
2023-04-03T06:47:38.025Z,2.51
2023-04-03T06:48:38.031Z,2.35
2023-04-03T06:49:37.995Z,2.34
2023-04-03T06:50:37.975Z,2.38
2023-04-03T06:51:37.968Z,2.34
2023-04-03T06:52:37.960Z,2.37
2023-04-03T06:53:37.960Z,2.44
2023-04-03T06:54:37.939Z,2.33
2023-04-03T06:55:38.020Z,2.28
2023-04-03T06:56:37.958Z,2.38
2023-04-03T06:57:37.939Z,2.28
2023-04-03T06:58:38.904Z,2.30
2023-04-03T06:59:37.919Z,2.44
2023-04-03T07:00:37.881Z,2.33
2023-04-03T07:01:38.586Z,2.37
2023-04-03T07:02:38.234Z,2.28
2023-04-03T07:03:37.862Z,2.28
2023-04-03T07:04:37.870Z,2.40
2023-04-03T07:05:37.990Z,2.40
2023-04-03T07:06:37.819Z,2.34
2023-04-03T07:07:38.324Z,2.34
2023-04-03T07:08:37.809Z,2.30
2023-04-03T07:09:37.781Z,2.20
2023-04-03T07:10:37.775Z,2.28
2023-04-03T07:11:37.757Z,2.38
2023-04-03T07:12:37.746Z,2.87
2023-04-03T07:13:37.745Z,3.15
2023-04-03T07:14:37.724Z,3.42
2023-04-03T07:15:37.851Z,3.53
2023-04-03T07:16:39.989Z,3.78
2023-04-03T07:17:37.763Z,3.79
2023-04-03T07:18:37.694Z,3.86
2023-04-03T07:19:37.684Z,3.82
2023-04-03T07:20:37.657Z,3.71
2023-04-03T07:21:37.651Z,3.67
2023-04-03T07:22:37.644Z,3.64
2023-04-03T07:23:37.645Z,3.58
2023-04-03T07:24:37.647Z,3.43
2023-04-03T07:25:37.842Z,3.36
2023-04-03T07:26:37.599Z,3.27
2023-04-03T07:27:37.590Z,3.16
2023-04-03T07:28:37.732Z,3.18
2023-04-03T07:29:37.577Z,3.24
2023-04-03T07:30:37.575Z,3.28
2023-04-03T07:31:37.572Z,3.10
2023-04-03T07:32:37.601Z,3.12
2023-04-03T07:33:37.537Z,3.20
2023-04-03T07:34:37.534Z,3.18
2023-04-03T07:35:37.932Z,3.07
2023-04-03T07:36:37.497Z,3.12
2023-04-03T07:37:37.502Z,3.25
2023-04-03T07:38:37.486Z,3.33
2023-04-03T07:39:37.468Z,3.39
2023-04-03T07:40:37.477Z,3.42
2023-04-03T07:41:37.460Z,3.49
2023-04-03T07:42:37.461Z,3.46
2023-04-03T07:43:37.439Z,3.44
2023-04-03T07:44:37.412Z,3.33
2023-04-03T07:45:37.726Z,3.25
2023-04-03T07:46:37.393Z,3.27
2023-04-03T07:47:37.417Z,3.20
2023-04-03T07:48:37.393Z,3.16
2023-04-03T07:49:37.372Z,3.06
2023-04-03T07:50:37.372Z,3.20
2023-04-03T07:51:37.345Z,3.13
2023-04-03T07:52:37.338Z,3.25
2023-04-03T07:53:37.343Z,3.31
2023-04-03T07:54:37.323Z,3.57
2023-04-03T07:55:37.566Z,3.86
2023-04-03T07:56:37.301Z,3.89
2023-04-03T07:57:37.329Z,4.06
2023-04-03T07:58:37.289Z,4.22
2023-04-03T07:59:37.264Z,4.29
2023-04-03T08:00:37.332Z,4.50
2023-04-03T08:01:37.242Z,4.46
2023-04-03T08:02:37.243Z,4.51
2023-04-03T08:03:37.289Z,4.55
2023-04-03T08:04:37.291Z,4.54
2023-04-03T08:05:37.358Z,4.58
2023-04-03T08:06:45.998Z,4.69
2023-04-03T08:07:39.178Z,4.72
2023-04-03T08:08:37.168Z,4.69
2023-04-03T08:09:37.168Z,4.91
2023-04-03T08:10:37.144Z,5.04
2023-04-03T08:11:37.133Z,5.23
2023-04-03T08:12:37.124Z,5.45
2023-04-03T08:13:37.116Z,5.70
2023-04-03T08:14:37.120Z,6.03
2023-04-03T08:15:37.181Z,6.29
2023-04-03T08:16:37.205Z,6.50
2023-04-03T08:17:37.114Z,6.73
2023-04-03T08:18:37.057Z,6.71
2023-04-03T08:19:37.061Z,6.72
2023-04-03T08:20:37.037Z,6.63
2023-04-03T08:21:37.038Z,6.56
2023-04-03T08:22:37.019Z,6.61
2023-04-03T08:23:37.014Z,6.25
2023-04-03T08:24:39.194Z,6.03
2023-04-03T08:25:37.105Z,5.95
2023-04-03T08:26:36.982Z,5.82
2023-04-03T08:27:36.976Z,5.71
2023-04-03T08:28:36.967Z,5.67
2023-04-03T08:29:36.995Z,5.50
2023-04-03T08:30:37.062Z,5.57
2023-04-03T08:31:36.929Z,5.81
2023-04-03T08:32:37.017Z,5.95
2023-04-03T08:33:36.910Z,5.82
2023-04-03T08:34:36.928Z,5.43
2023-04-03T08:35:38.226Z,5.22
2023-04-03T08:36:37.880Z,5.27
2023-04-03T08:37:37.532Z,5.34
2023-04-03T08:38:36.864Z,5.46
2023-04-03T08:39:36.858Z,5.19
2023-04-03T08:40:36.849Z,5.05
2023-04-03T08:41:36.858Z,5.19
2023-04-03T08:42:36.848Z,5.35
2023-04-03T08:43:36.815Z,5.67
2023-04-03T08:44:37.380Z,5.71
2023-04-03T08:45:36.974Z,6.10
2023-04-03T08:46:36.892Z,6.54
2023-04-03T08:47:36.787Z,7.09
2023-04-03T08:48:36.847Z,7.42
2023-04-03T08:49:36.819Z,7.67
2023-04-03T08:50:36.737Z,8.07
2023-04-03T08:51:36.729Z,8.18
2023-04-03T08:52:36.719Z,8.15
2023-04-03T08:53:36.710Z,7.94
2023-04-03T08:54:36.716Z,7.53
2023-04-03T08:55:36.928Z,7.59
2023-04-03T08:56:36.678Z,7.67
2023-04-03T08:57:36.797Z,7.90
2023-04-03T08:58:36.654Z,8.04
2023-04-03T08:59:36.665Z,8.10
2023-04-03T09:00:36.649Z,7.97
2023-04-03T09:01:36.644Z,7.81
2023-04-03T09:02:36.674Z,7.63
2023-04-03T09:03:36.659Z,7.59
2023-04-03T09:04:36.698Z,7.27
2023-04-03T09:05:36.833Z,7.15
2023-04-03T09:06:37.300Z,7.32
2023-04-03T09:07:36.562Z,7.22
2023-04-03T09:08:36.550Z,7.08
2023-04-03T09:09:36.594Z,7.29
2023-04-03T09:10:36.721Z,7.52
2023-04-03T09:11:36.552Z,7.60
2023-04-03T09:12:36.526Z,7.79
2023-04-03T09:13:36.525Z,7.75
2023-04-03T09:14:36.510Z,7.72
2023-04-03T09:15:39.515Z,8.28
2023-04-03T09:16:37.487Z,8.26
2023-04-03T09:17:36.548Z,8.28
2023-04-03T09:18:36.463Z,8.57
2023-04-03T09:19:36.442Z,8.07
2023-04-03T09:20:36.786Z,8.12
2023-04-03T09:21:36.430Z,8.29
2023-04-03T09:22:41.976Z,8.54
2023-04-03T09:23:38.433Z,8.97
2023-04-03T09:24:36.410Z,9.12
2023-04-03T09:25:36.410Z,8.97
2023-04-03T09:26:36.420Z,8.71
2023-04-03T09:27:36.400Z,8.68
2023-04-03T09:28:42.902Z,8.54
2023-04-03T09:29:38.374Z,8.54
2023-04-03T09:30:36.534Z,8.81
2023-04-03T09:31:36.362Z,9.16
2023-04-03T09:32:36.385Z,9.50
2023-04-03T09:33:36.342Z,9.63
2023-04-03T09:34:36.326Z,9.42
2023-04-03T09:35:47.442Z,9.48
2023-04-03T09:36:38.386Z,9.23
2023-04-03T09:37:36.276Z,9.13
2023-04-03T09:38:36.282Z,9.25
2023-04-03T09:39:36.262Z,9.40
2023-04-03T09:40:36.709Z,9.23
2023-04-03T09:41:36.242Z,9.20
2023-04-03T09:42:36.859Z,9.50
2023-04-03T09:43:36.185Z,9.58
2023-04-03T09:44:36.223Z,9.56
2023-04-03T09:45:36.215Z,9.34
2023-04-03T09:46:36.239Z,9.57
2023-04-03T09:47:36.249Z,10.03
2023-04-03T09:48:36.181Z,10.51
2023-04-03T09:49:36.190Z,10.14
2023-04-03T09:50:36.338Z,10.21
2023-04-03T09:51:36.166Z,10.42
2023-04-03T09:52:37.627Z,10.68
2023-04-03T09:53:37.135Z,11.09
2023-04-03T09:54:36.140Z,11.06
2023-04-03T09:55:36.104Z,11.29
2023-04-03T09:56:36.087Z,11.10
2023-04-03T09:57:36.117Z,11.16
2023-04-03T09:58:46.977Z,11.32
2023-04-03T09:59:38.068Z,11.75
2023-04-03T10:00:36.295Z,11.54
2023-04-03T10:01:36.107Z,11.09
2023-04-03T10:02:36.081Z,10.86
2023-04-03T10:03:36.011Z,10.24
2023-04-03T10:04:36.065Z,10.17
2023-04-03T10:05:36.018Z,10.24
2023-04-03T10:06:36.036Z,10.42
2023-04-03T10:07:36.007Z,10.58
2023-04-03T10:08:36.092Z,10.04
2023-04-03T10:09:35.947Z,9.48
2023-04-03T10:10:36.944Z,9.15
2023-04-03T10:11:35.946Z,9.15
2023-04-03T10:12:35.920Z,9.21
2023-04-03T10:13:45.201Z,9.49
2023-04-03T10:14:37.939Z,9.68
2023-04-03T10:15:35.929Z,10.14
2023-04-03T10:16:35.948Z,10.22
2023-04-03T10:17:35.955Z,10.03
2023-04-03T10:18:35.920Z,9.79
2023-04-03T10:19:35.868Z,9.57
2023-04-03T10:20:35.949Z,9.46
2023-04-03T10:21:35.855Z,9.01
2023-04-03T10:22:35.851Z,8.93
2023-04-03T10:23:35.885Z,9.01
2023-04-03T10:24:35.906Z,9.18
2023-04-03T10:25:35.848Z,9.04
2023-04-03T10:26:35.834Z,9.20
2023-04-03T10:27:35.800Z,9.25
2023-04-03T10:28:35.827Z,9.23
2023-04-03T10:29:35.820Z,9.81
2023-04-03T10:30:36.064Z,10.24
2023-04-03T10:31:35.811Z,10.77
2023-04-03T10:32:35.832Z,10.71
2023-04-03T10:33:35.722Z,10.22
2023-04-03T10:34:35.717Z,10.22
2023-04-03T10:35:35.837Z,10.46
2023-04-03T10:36:35.707Z,10.33
2023-04-03T10:37:35.782Z,10.09
2023-04-03T10:38:35.696Z,9.73
2023-04-03T10:39:35.734Z,9.42
2023-04-03T10:40:36.104Z,9.13
2023-04-03T10:41:35.683Z,8.86
2023-04-03T10:42:35.640Z,8.68
2023-04-03T10:43:35.692Z,8.39
2023-04-03T10:44:35.673Z,8.11
2023-04-03T10:45:35.660Z,7.85
2023-04-03T10:46:35.712Z,7.81
2023-04-03T10:47:37.227Z,7.82
2023-04-03T10:48:35.597Z,7.67
2023-04-03T10:49:35.569Z,7.50
2023-04-03T10:50:35.847Z,7.42
2023-04-03T10:51:35.563Z,7.16
2023-04-03T10:52:35.545Z,6.89
2023-04-03T10:53:35.538Z,7.31
2023-04-03T10:54:35.531Z,7.29
2023-04-03T10:55:35.599Z,7.99
2023-04-03T10:56:35.654Z,8.83
2023-04-03T10:57:35.586Z,9.31
2023-04-03T10:58:35.492Z,9.40
2023-04-03T10:59:35.457Z,9.71
2023-04-03T11:00:35.770Z,9.73
2023-04-03T11:01:35.517Z,10.07
2023-04-03T11:02:35.511Z,10.78
2023-04-03T11:03:35.583Z,10.24
2023-04-03T11:04:35.428Z,9.91
2023-04-03T11:05:35.479Z,10.17
2023-04-03T11:06:35.435Z,10.81
2023-04-03T11:07:35.397Z,11.06
2023-04-03T11:08:35.445Z,11.28
2023-04-03T11:09:35.387Z,11.59
2023-04-03T11:10:35.384Z,11.38
2023-04-03T11:11:35.401Z,11.20
2023-04-03T11:12:35.433Z,11.09
2023-04-03T11:13:35.390Z,10.68
2023-04-03T11:14:35.388Z,10.78
2023-04-03T11:15:35.355Z,10.92
2023-04-03T11:16:43.591Z,11.17
2023-04-03T11:17:37.442Z,11.35
2023-04-03T11:18:35.281Z,11.54
2023-04-03T11:19:35.266Z,11.71
2023-04-03T11:20:35.270Z,12.31
2023-04-03T11:21:35.287Z,12.69
2023-04-03T11:22:35.251Z,13.07
2023-04-03T11:23:46.053Z,12.95
2023-04-03T11:24:37.262Z,12.66
2023-04-03T11:25:35.448Z,12.93
2023-04-03T11:26:35.250Z,13.14
2023-04-03T11:27:35.180Z,12.31
2023-04-03T11:28:35.287Z,11.99
2023-04-03T11:29:35.972Z,11.61
2023-04-03T11:30:36.198Z,11.34
2023-04-03T11:31:35.298Z,10.99
2023-04-03T11:32:35.253Z,10.80
2023-04-03T11:33:35.221Z,10.78
2023-04-03T11:34:35.258Z,10.51
2023-04-03T11:35:35.240Z,9.93
2023-04-03T11:36:36.911Z,9.68
2023-04-03T11:37:35.142Z,9.45
2023-04-03T11:38:35.189Z,9.21
2023-04-03T11:39:35.192Z,9.10
2023-04-03T11:40:35.119Z,9.16
2023-04-03T11:41:35.131Z,8.96
2023-04-03T11:42:35.229Z,8.54
2023-04-03T11:43:35.076Z,8.60
2023-04-03T11:44:35.169Z,8.69
2023-04-03T11:45:35.102Z,8.48
2023-04-03T11:46:35.110Z,8.22
2023-04-03T11:47:35.087Z,8.15
2023-04-03T11:48:35.066Z,8.14
2023-04-03T11:49:35.028Z,8.10
2023-04-03T11:50:35.052Z,8.45
2023-04-03T11:51:35.119Z,8.81
2023-04-03T11:52:35.098Z,9.18
2023-04-03T11:53:35.065Z,9.35
2023-04-03T11:54:42.124Z,9.28
2023-04-03T11:55:37.252Z,9.24
2023-04-03T11:56:34.929Z,8.86
2023-04-03T11:57:35.006Z,9.42
2023-04-03T11:58:34.925Z,10.22
2023-04-03T11:59:34.921Z,10.17
2023-04-03T12:00:34.968Z,10.26
2023-04-03T12:01:34.925Z,10.44
2023-04-03T12:02:41.156Z,10.60
2023-04-03T12:03:35.968Z,10.43
2023-04-03T12:04:34.891Z,10.12
2023-04-03T12:05:34.862Z,10.28
2023-04-03T12:06:34.831Z,10.34
2023-04-03T12:07:34.887Z,10.22
2023-04-03T12:08:34.873Z,9.78
2023-04-03T12:09:34.817Z,9.35
2023-04-03T12:10:34.814Z,9.25
2023-04-03T12:11:34.838Z,9.16
2023-04-03T12:12:34.825Z,9.15
2023-04-03T12:13:34.812Z,9.10
2023-04-03T12:14:34.795Z,9.18
2023-04-03T12:15:34.740Z,9.48
2023-04-03T12:16:34.963Z,10.32
2023-04-03T12:17:34.765Z,10.74
2023-04-03T12:18:34.730Z,10.84
2023-04-03T12:19:42.511Z,10.65
2023-04-03T12:20:36.783Z,10.32
2023-04-03T12:21:34.796Z,10.32
2023-04-03T12:22:34.719Z,10.14
2023-04-03T12:23:34.750Z,9.86
2023-04-03T12:24:34.721Z,9.81
2023-04-03T12:25:34.757Z,9.81
2023-04-03T12:26:45.588Z,9.71
2023-04-03T12:27:36.687Z,9.99
2023-04-03T12:28:34.645Z,10.04
2023-04-03T12:29:34.681Z,10.04
2023-04-03T12:30:34.601Z,9.60
2023-04-03T12:31:34.651Z,9.40
2023-04-03T12:32:34.696Z,9.46
2023-04-03T12:33:34.755Z,9.94
2023-04-03T12:34:34.726Z,10.21
2023-04-03T12:35:34.619Z,10.34
2023-04-03T12:36:34.568Z,10.59
2023-04-03T12:37:34.546Z,10.71
2023-04-03T12:38:34.512Z,10.74
2023-04-03T12:39:35.350Z,10.77
2023-04-03T12:40:34.506Z,10.70
2023-04-03T12:41:34.519Z,10.52
2023-04-03T12:42:34.522Z,10.42
2023-04-03T12:43:34.523Z,10.62
2023-04-03T12:44:35.494Z,11.09
2023-04-03T12:45:34.502Z,11.74
2023-04-03T12:46:34.507Z,12.09
2023-04-03T12:47:34.510Z,12.31
2023-04-03T12:48:34.514Z,12.66
2023-04-03T12:49:34.393Z,12.93
2023-04-03T12:50:34.382Z,13.29
2023-04-03T12:51:34.386Z,13.70
2023-04-03T12:52:34.394Z,13.51
2023-04-03T12:53:34.386Z,13.14
2023-04-03T12:54:34.404Z,12.44
2023-04-03T12:55:34.432Z,12.33
2023-04-03T12:56:34.359Z,12.33
2023-04-03T12:57:35.718Z,12.52
2023-04-03T13:00:56.828Z,13.46
2023-04-03T13:01:52.311Z,13.98
2023-04-03T13:02:52.228Z,14.43
2023-04-03T13:03:52.356Z,14.78
2023-04-03T13:09:20.864Z,12.78
2023-04-03T13:10:20.878Z,12.93
2023-04-03T13:11:20.854Z,12.49
2023-04-03T13:12:20.947Z,12.12
2023-04-03T13:13:21.449Z,11.85
2023-04-03T13:14:21.466Z,12.01
2023-04-03T13:15:20.820Z,11.83
2023-04-03T13:16:20.847Z,11.43
2023-04-03T13:17:20.819Z,11.56
2023-04-03T13:18:20.784Z,11.71
2023-04-03T13:19:20.865Z,12.04
2023-04-03T13:20:20.782Z,12.09
2023-04-03T13:21:20.760Z,11.65